| time (UTC) | temp C | wind direction | speed KPH | gust KPH | rain 1hr cm | rain 24hr cm | rain mn cm | humidity % | barometer mb |
| 20260504205022 | 24 | 166 | 11.3 | 14.5 | 0.00 | 6.99 | 6.88 | 58 | 1001.7 |
| 20260504204018 | 23 | 173 | 9.7 | 19.3 | 0.00 | 6.99 | 6.88 | 61 | 1002.0 |
| 20260504203021 | -17 | 158 | 8.0 | 8.0 | 0.00 | 6.99 | 6.88 | 1002.0 | |
| 20260504202055 | 23 | 174 | 8.0 | 11.3 | 0.00 | 6.99 | 6.88 | 64 | 1002.1 |
| 20260504201050 | 23 | 169 | 8.0 | 12.9 | 0.00 | 6.99 | 6.88 | 65 | 1002.3 |
| 20260504200027 | 22 | 165 | 6.4 | 11.3 | 0.00 | 6.99 | 6.88 | 65 | 1002.4 |
| 20260504195023 | 22 | 163 | 9.7 | 17.7 | 0.00 | 6.99 | 6.88 | 64 | 1002.4 |
| 20260504194019 | 22 | 268 | 4.8 | 9.7 | 0.00 | 6.99 | 6.88 | 69 | 1002.3 |
| 20260504193058 | 20 | 151 | 4.8 | 6.4 | 0.00 | 6.99 | 6.88 | 72 | 1001.6 |
| 20260504192031 | 20 | 167 | 4.8 | 8.0 | 0.00 | 6.99 | 6.88 | 74 | 1001.7 |
| 20260504191026 | 19 | 193 | 8.0 | 12.9 | 0.00 | 6.99 | 6.88 | 73 | 1002.3 |
| 20260504190023 | 20 | 177 | 3.2 | 9.7 | 0.00 | 6.99 | 6.88 | 73 | 1003.2 |
| 20260504185023 | 20 | 166 | 4.8 | 8.0 | 0.00 | 6.99 | 6.88 | 72 | 1003.5 |
| 20260504184040 | 20 | 174 | 3.2 | 9.7 | 0.00 | 6.99 | 6.88 | 75 | 1003.5 |
| 20260504183028 | 19 | 176 | 6.4 | 9.7 | 6.83 | 6.99 | 6.88 | 75 | 1003.3 |
| 20260504182024 | 18 | 163 | 6.4 | 12.9 | 6.83 | 6.99 | 6.88 | 77 | 1003.6 |
| 20260504181019 | 18 | 156 | 4.8 | 8.0 | 6.83 | 6.99 | 6.88 | 79 | 1003.7 |
| 20260504180043 | 17 | 170 | 3.2 | 6.4 | 6.86 | 6.99 | 6.88 | 82 | 1003.7 |
| 20260504175024 | 17 | 177 | 3.2 | 8.0 | 6.88 | 6.99 | 6.88 | 81 | 1003.4 |
| 20260504174025 | 17 | 230 | 3.2 | 6.4 | 6.88 | 6.99 | 6.88 | 82 | 1004.0 |
| 20260504173044 | 17 | 184 | 3.2 | 8.0 | 0.05 | 0.15 | 0.05 | 80 | 1003.4 |
| 20260504172018 | 17 | 173 | 4.8 | 8.0 | 0.05 | 0.15 | 0.05 | 80 | 1003.7 |
| 20260504171021 | 17 | 168 | 3.2 | 4.8 | 0.05 | 0.15 | 0.05 | 81 | 1004.0 |
| 20260504151033 | 19 | 233 | 3.2 | 8.0 | 0.00 | 0.10 | 0.00 | 68 | 1005.6 |
| 20260504141022 | 20 | 185 | 4.8 | 8.0 | 0.00 | 0.10 | 0.00 | 67 | 1005.6 |
| 20260504081018 | 15 | 0.0 | 0.0 | 0.00 | 0.10 | 0.00 | 85 | 1006.6 | |
| 20260504045032 | 14 | 0.0 | 0.0 | 0.10 | 0.10 | 0.10 | 89 | 1006.5 | |
| 20260504044029 | 15 | 0.0 | 0.0 | 0.10 | 0.10 | 0.10 | 86 | 1006.2 | |
| 20260504043024 | 15 | 0.0 | 0.0 | 0.10 | 0.10 | 0.10 | 88 | 1006.8 | |
| 20260504042033 | 16 | 18 | 1.6 | 3.2 | 0.10 | 0.10 | 0.10 | 82 | 1007.5 |
| 20260504041033 | 17 | 167 | 3.2 | 4.8 | 0.10 | 0.10 | 0.10 | 73 | 1007.3 |
| 20260504040024 | 18 | 270 | 1.6 | 4.8 | 0.00 | 0.00 | 0.00 | 60 | 1006.9 |
| 20260504035024 | 18 | 158 | 0.0 | 3.2 | 0.00 | 0.00 | 0.00 | 59 | 1007.4 |
| 20260504034027 | 18 | 135 | 1.6 | 4.8 | 0.00 | 0.00 | 0.00 | 59 | 1007.4 |
| 20260504033025 | 19 | 158 | 1.6 | 3.2 | 0.00 | 0.00 | 0.00 | 58 | 1007.6 |
| 20260504032021 | 19 | 168 | 1.6 | 3.2 | 0.00 | 0.00 | 0.00 | 58 | 1007.6 |
| 20260504031024 | 19 | 0.0 | 0.0 | 0.00 | 0.00 | 0.00 | 57 | 1007.6 | |
| 20260504030017 | 20 | 180 | 0.0 | 1.6 | 0.00 | 0.00 | 0.00 | 56 | 1007.6 |
| 20260504025032 | 20 | 158 | 0.0 | 3.2 | 0.00 | 0.00 | 0.00 | 56 | 1007.6 |
| 20260504024028 | 20 | 0.0 | 3.2 | 0.00 | 0.00 | 0.00 | 56 | 1007.4 | |
| 20260504023031 | 20 | 180 | 1.6 | 4.8 | 0.00 | 0.00 | 0.00 | 56 | 1007.5 |
| 20260504022033 | 20 | 178 | 1.6 | 3.2 | 0.00 | 0.00 | 0.00 | 55 | 1007.4 |
| 20260504021034 | 20 | 0.0 | 0.0 | 0.00 | 0.00 | 0.00 | 54 | 1007.3 | |
| 20260504020031 | 20 | 338 | 0.0 | 3.2 | 0.00 | 0.00 | 0.00 | 53 | 1007.2 |
| 20260504015028 | 21 | 0.0 | 0.0 | 0.00 | 0.00 | 0.00 | 50 | 1007.0 | |
| 20260504014025 | 21 | 0.0 | 0.0 | 0.00 | 0.00 | 0.00 | 50 | 1006.8 | |
| 20260504013020 | 21 | 180 | 0.0 | 3.2 | 0.00 | 0.00 | 0.00 | 50 | 1006.7 |
| 20260504012018 | 21 | 113 | 0.0 | 3.2 | 0.00 | 0.00 | 0.00 | 48 | 1006.6 |
| 20260504011039 | 21 | 176 | 1.6 | 6.4 | 0.00 | 0.00 | 0.00 | 48 | 1006.6 |
| 20260504010026 | 22 | 232 | 1.6 | 4.8 | 0.00 | 0.00 | 0.00 | 47 | 1006.6 |
| 20260504005023 | 22 | 180 | 0.0 | 4.8 | 0.00 | 0.00 | 0.00 | 46 | 1006.6 |
| 20260504004101 | 22 | 154 | 1.6 | 6.4 | 0.00 | 0.00 | 0.00 | 46 | 1006.8 |
| 20260504003020 | 22 | 124 | 1.6 | 6.4 | 0.00 | 0.00 | 0.00 | 45 | 1006.9 |
| 20260504002034 | 23 | 158 | 1.6 | 4.8 | 0.00 | 0.00 | 0.00 | 44 | 1006.8 |
| 20260504001029 | 23 | 191 | 1.6 | 4.8 | 0.00 | 0.00 | 0.00 | 43 | 1006.8 |
| 20260504000025 | 24 | 113 | 0.0 | 3.2 | 0.00 | 0.00 | 0.00 | 42 | 1006.8 |
| 20260503235021 | 24 | 210 | 1.6 | 4.8 | 0.00 | 0.00 | 0.00 | 42 | 1006.9 |
| 20260503234017 | 24 | 145 | 3.2 | 9.7 | 0.00 | 0.00 | 0.00 | 43 | 1007.0 |
| 20260503233032 | 24 | 167 | 3.2 | 6.4 | 0.00 | 0.00 | 0.00 | 42 | 1006.9 |
| 20260503232029 | 25 | 293 | 6.4 | 14.5 | 0.00 | 0.00 | 0.00 | 40 | 1007.2 |
| 20260503231031 | 25 | 267 | 6.4 | 11.3 | 0.00 | 0.00 | 0.00 | 39 | 1007.3 |
| 20260503230030 | 25 | 231 | 4.8 | 9.7 | 0.00 | 0.00 | 0.00 | 38 | 1007.4 |
| 20260503225021 | 26 | 268 | 6.4 | 11.3 | 0.00 | 0.00 | 0.00 | 38 | 1007.6 |
| 20260503224018 | 26 | 269 | 6.4 | 11.3 | 0.00 | 0.00 | 0.00 | 38 | 1007.6 |
| 20260503223046 | 26 | 226 | 8.0 | 14.5 | 0.00 | 0.00 | 0.00 | 38 | 1007.6 |
| 20260503222022 | 25 | 227 | 6.4 | 9.7 | 0.00 | 0.00 | 0.00 | 38 | 1007.6 |
| 20260503221018 | 25 | 280 | 6.4 | 11.3 | 0.00 | 0.00 | 0.00 | 37 | 1007.6 |
| 20260503220020 | 25 | 259 | 11.3 | 20.9 | 0.00 | 0.00 | 0.00 | 36 | 1007.7 |
| 20260503215035 | 25 | 258 | 8.0 | 19.3 | 0.00 | 0.00 | 0.00 | 37 | 1007.9 |
| 20260503214031 | 25 | 221 | 4.8 | 8.0 | 0.00 | 0.00 | 0.00 | 38 | 1008.2 |
| 20260503213026 | 25 | 220 | 11.3 | 19.3 | 0.00 | 0.00 | 0.00 | 37 | 1008.3 |
| 20260503212029 | 25 | 221 | 6.4 | 12.9 | 0.00 | 0.00 | 0.00 | 39 | 1008.2 |
| 20260503211021 | 25 | 199 | 8.0 | 16.1 | 0.00 | 0.00 | 0.00 | 40 | 1008.2 |
| 20260503210018 | 24 | 181 | 8.0 | 11.3 | 0.00 | 0.00 | 0.00 | 39 | 1008.4 |
| 20260503205111 | 23 | 188 | 9.7 | 16.1 | 0.00 | 0.00 | 0.00 | 39 | 1008.5 |